Time;durP1;ratioP1;P1;durP2;ratioP2;P2;SDS_P1;SDS_P2;PMS_P1;PMS_P2;Temp;Humidity;BMP_temperature;BMP_pressure;BME280_temperature;BME280_humidity;BME280_pressure;Samples;Min_cycle;Max_cycle;Signal;HPM_P1;HPM_P2
2022/08/29 00:02:38;;;;;;;;;15.75;15.50;;;;;24.80;57.33;100781.62;146604;720;46010;-84
2022/08/29 00:05:40;;;;;;;;;19.50;15.00;;;;;24.77;56.75;100779.87;146607;675;46008;-80
2022/08/29 00:08:49;;;;;;;;;19.50;16.50;;;;;24.73;56.53;100778.09;146603;576;46010;-79
2022/08/29 00:11:44;;;;;;;;;22.75;19.00;;;;;24.75;56.96;100783.41;146604;559;46018;-81
2022/08/29 00:14:50;;;;;;;;;21.00;18.00;;;;;24.75;56.54;100784.28;146602;617;46030;-79
2022/08/29 00:17:45;;;;;;;;;17.75;16.25;;;;;24.80;56.92;100779.84;146607;564;46010;-78
2022/08/29 00:20:54;;;;;;;;;19.25;18.00;;;;;24.89;56.41;100773.56;146602;684;46018;-76
2022/08/29 00:23:52;;;;;;;;;19.75;18.00;;;;;24.91;56.72;100770.94;146607;601;46019;-78
2022/08/29 00:26:46;;;;;;;;;19.75;18.50;;;;;24.86;57.14;100765.69;146603;616;46018;-79
2022/08/29 00:29:38;;;;;;;;;20.00;19.25;;;;;24.79;56.89;100762.16;146608;563;46019;-76
2022/08/29 00:32:40;;;;;;;;;18.00;18.00;;;;;24.77;57.28;100761.31;146602;593;46021;-76
2022/08/29 00:35:54;;;;;;;;;19.75;18.75;;;;;22.87;56.74;100428.56;146606;594;46018;-73
2022/08/29 00:38:46;;;;;;;;;18.25;16.25;;;;;24.79;57.88;100753.31;146605;565;46019;-72
2022/08/29 00:41:41;;;;;;;;;18.75;17.00;;;;;24.79;58.09;100753.31;146604;604;46018;-73
2022/08/29 00:44:39;;;;;;;;;16.25;15.75;;;;;24.75;57.38;100744.50;146601;650;46011;-73
2022/08/29 00:47:40;;;;;;;;;17.25;16.00;;;;;24.74;57.86;100753.38;146607;599;46023;-74
2022/08/29 00:51:01;;;;;;;;;17.75;17.25;;;;;24.73;57.77;100756.00;146606;600;46010;-75
2022/08/29 00:54:28;;;;;;;;;;;;;;;;;;;;;
2022/08/29 00:57:27;;;;;;;;;17.25;17.25;;;;;24.76;57.73;100756.88;146607;627;46010;-74
2022/08/29 01:00:25;;;;;;;;;20.00;17.50;;;;;24.78;58.02;100756.88;146610;588;46009;-72
2022/08/29 01:03:20;;;;;;;;;17.75;17.75;;;;;24.73;59.06;100751.59;146602;604;46018;-75
2022/08/29 01:06:20;;;;;;;;;20.25;18.50;;;;;24.66;58.09;100755.19;146605;598;46018;-75
2022/08/29 01:09:14;;;;;;;;;19.75;17.50;;;;;24.63;59.15;100750.78;146604;569;46913;-73
2022/08/29 01:12:22;;;;;;;;;18.50;17.25;;;;;24.61;59.15;100749.91;146607;578;46027;-75
2022/08/29 01:15:21;;;;;;;;;17.25;16.50;;;;;24.62;58.74;100750.78;146606;612;46010;-74
2022/08/29 01:18:22;;;;;;;;;18.00;17.75;;;;;24.65;58.96;100756.94;146603;608;46018;-77
2022/08/29 01:21:52;;;;;;;;;16.00;15.25;;;;;22.82;57.44;100438.25;146604;623;46018;-77
2022/08/29 01:24:52;;;;;;;;;19.75;19.25;;;;;24.64;59.05;100755.19;146610;606;46018;-76
2022/08/29 01:27:56;;;;;;;;;18.25;18.00;;;;;24.59;58.00;100749.03;146605;580;46018;-76
2022/08/29 01:31:11;;;;;;;;;20.25;19.00;;;;;24.56;57.65;100751.69;146608;575;46012;-83
2022/08/29 01:34:12;;;;;;;;;17.50;15.50;;;;;24.53;57.74;100750.84;146603;616;46018;-77
2022/08/29 01:37:17;;;;;;;;;16.75;16.00;;;;;24.47;57.59;100751.75;146609;609;46008;-80
2022/08/29 01:40:21;;;;;;;;;16.25;14.50;;;;;24.43;57.77;100750.03;146603;694;46018;-79
2022/08/29 01:43:13;;;;;;;;;16.50;15.50;;;;;24.34;58.77;100748.25;146609;732;46018;-77
2022/08/29 01:46:28;;;;;;;;;18.50;17.75;;;;;24.28;57.94;100744.75;146602;664;46019;-76
2022/08/29 01:49:26;;;;;;;;;14.75;14.75;;;;;24.28;58.06;100737.69;146606;666;47012;-77
2022/08/29 01:52:37;;;;;;;;;14.75;14.50;;;;;24.32;58.47;100742.06;146600;633;46019;-75
2022/08/29 01:55:35;;;;;;;;;16.25;16.00;;;;;24.36;58.23;100742.94;146607;577;46008;-79
2022/08/29 01:58:42;;;;;;;;;17.50;14.75;;;;;24.35;59.12;100736.75;146602;698;46029;-75
2022/08/29 02:01:52;;;;;;;;;18.50;15.75;;;;;24.27;58.45;100742.97;146607;590;46018;-76
2022/08/29 02:04:46;;;;;;;;;18.00;15.75;;;;;24.18;58.70;100739.50;146602;595;46018;-77
2022/08/29 02:07:58;;;;;;;;;16.00;15.75;;;;;22.23;58.45;100416.37;146605;625;46008;-74
2022/08/29 02:11:01;;;;;;;;;;;;;;;;;;;;;
2022/08/29 02:14:02;;;;;;;;;15.25;14.25;;;;;23.25;58.88;100600.34;146606;581;46020;-76
2022/08/29 02:17:12;;;;;;;;;;;;;;;;;;;;;
2022/08/29 02:20:41;;;;;;;;;;;;;;;;;;;;;
2022/08/29 02:23:48;;;;;;;;;16.25;15.50;;;;;24.08;58.63;100737.78;146604;581;46912;-85
2022/08/29 02:26:52;;;;;;;;;;;;;;;;;;;;;
2022/08/29 02:29:49;;;;;;;;;15.50;14.50;;;;;23.95;59.52;100733.41;146603;609;46018;-71
2022/08/29 02:32:42;;;;;;;;;17.25;16.50;;;;;23.85;59.94;100735.19;146606;650;46008;-71
2022/08/29 02:35:47;;;;;;;;;17.50;15.50;;;;;23.75;59.54;100738.75;146605;574;46913;-73
2022/08/29 02:38:49;;;;;;;;;17.75;16.00;;;;;23.68;59.48;100742.28;146608;645;46008;-78
2022/08/29 02:42:03;;;;;;;;;15.75;14.75;;;;;23.63;59.92;100744.94;146605;587;46010;-84
2022/08/29 02:44:58;;;;;;;;;15.75;14.75;;;;;23.62;59.70;100747.59;146608;573;46019;-80
2022/08/29 02:47:57;;;;;;;;;17.50;17.50;;;;;23.66;59.55;100752.88;146601;569;46018;-83
2022/08/29 02:50:57;;;;;;;;;15.00;13.00;;;;;23.71;59.81;100744.97;146606;645;46008;-85
2022/08/29 02:53:53;;;;;;;;;19.00;17.75;;;;;23.77;59.93;100752.91;146600;612;46012;-82
2022/08/29 02:56:45;;;;;;;;;16.25;15.00;;;;;23.75;60.00;100749.34;146607;569;46008;-75
2022/08/29 02:59:43;;;;;;;;;16.50;16.00;;;;;23.69;59.52;100738.78;146602;601;46010;-75
2022/08/29 03:02:43;;;;;;;;;17.00;15.50;;;;;23.69;59.48;100744.94;146607;580;46018;-75
2022/08/29 03:05:58;;;;;;;;;17.75;16.75;;;;;21.89;59.03;100439.25;146597;607;48010;-80
2022/08/29 03:08:57;;;;;;;;;17.25;16.50;;;;;23.65;59.71;100758.19;146606;588;46018;-85
2022/08/29 03:11:53;;;;;;;;;18.25;16.50;;;;;23.62;60.00;100763.47;146605;603;46018;-82
2022/08/29 03:15:08;;;;;;;;;;;;;;;;;;;;;
2022/08/29 03:18:06;;;;;;;;;15.00;14.75;;;;;23.52;59.53;100758.19;146606;612;46010;-80
2022/08/29 03:21:06;;;;;;;;;16.00;16.00;;;;;23.53;60.13;100767.00;146609;601;46008;-80
2022/08/29 03:24:01;;;;;;;;;18.75;17.00;;;;;23.54;59.85;100768.75;146603;657;46010;-77
2022/08/29 03:27:02;;;;;;;;;17.75;16.00;;;;;23.54;59.88;100776.69;146606;634;46018;-80
2022/08/29 03:30:00;;;;;;;;;19.50;15.75;;;;;23.50;59.49;100786.41;146606;643;46010;-79
2022/08/29 03:33:10;;;;;;;;;17.75;15.75;;;;;23.52;58.94;100787.31;146604;569;46018;-88
2022/08/29 03:36:04;;;;;;;;;15.75;15.75;;;;;23.59;59.80;100787.31;146605;673;46915;-78
2022/08/29 03:39:10;;;;;;;;;17.25;16.00;;;;;23.69;59.33;100787.31;146601;607;46018;-86
2022/08/29 03:42:06;;;;;;;;;16.00;16.00;;;;;23.80;59.14;100782.00;146604;571;46010;-83
2022/08/29 03:45:02;;;;;;;;;18.75;16.00;;;;;23.86;59.28;100781.09;146608;575;46008;-83
2022/08/29 03:48:08;;;;;;;;;20.25;19.75;;;;;23.06;59.57;100646.25;146605;664;46914;-82
2022/08/29 03:51:15;;;;;;;;;18.75;16.00;;;;;23.81;59.23;100790.84;146607;570;46019;-82
2022/08/29 03:54:13;;;;;;;;;16.00;15.25;;;;;23.76;59.69;100792.59;146606;606;46010;-80
2022/08/29 03:57:23;;;;;;;;;18.50;16.50;;;;;23.82;59.51;100806.69;146606;613;46018;-79
2022/08/29 04:00:29;;;;;;;;;19.00;18.00;;;;;21.96;58.91;100482.38;146606;629;46018;-77
2022/08/29 04:03:21;;;;;;;;;20.75;17.25;;;;;23.71;59.48;100795.25;146601;570;47012;-78
2022/08/29 04:06:27;;;;;;;;;18.75;17.25;;;;;23.65;60.33;100796.13;146605;583;46010;-78
2022/08/29 04:09:37;;;;;;;;;16.50;15.00;;;;;21.68;59.71;100479.69;146602;626;46010;-77
2022/08/29 04:12:32;;;;;;;;;19.50;17.00;;;;;23.42;60.99;100806.69;146602;738;46010;-75
2022/08/29 04:15:28;;;;;;;;;18.00;14.00;;;;;23.36;60.66;100795.22;146606;677;46019;-78
2022/08/29 04:18:30;;;;;;;;;13.75;12.25;;;;;23.36;60.99;100798.75;146605;600;46018;-78
2022/08/29 04:21:37;;;;;;;;;18.00;16.25;;;;;23.37;60.77;100799.66;146607;571;46019;-75
2022/08/29 04:24:40;;;;;;;;;15.00;14.75;;;;;23.40;60.67;100805.84;146605;581;46012;-74
2022/08/29 04:27:47;;;;;;;;;15.50;13.25;;;;;23.45;60.53;100811.13;146608;660;47008;-76
2022/08/29 04:30:48;;;;;;;;;20.00;16.75;;;;;23.51;60.61;100811.13;146604;571;46012;-73
2022/08/29 04:33:48;;;;;;;;;17.75;17.00;;;;;23.60;60.44;100815.53;146609;586;46008;-78
2022/08/29 04:36:46;;;;;;;;;21.50;17.00;;;;;23.67;60.20;100815.50;146605;594;46010;-75
2022/08/29 04:39:42;;;;;;;;;22.25;20.25;;;;;23.69;61.00;100820.84;146604;593;46018;-77
2022/08/29 04:42:41;;;;;;;;;18.25;16.75;;;;;23.64;61.47;100815.50;146602;655;46019;-77
2022/08/29 04:45:43;;;;;;;;;18.25;16.75;;;;;23.76;61.70;100827.00;146606;581;47008;-74
2022/08/29 04:48:39;;;;;;;;;17.00;15.75;;;;;23.96;60.40;100825.22;146606;600;46010;-75
2022/08/29 04:51:35;;;;;;;;;18.00;17.50;;;;;24.14;60.49;100819.87;146604;675;46008;-75
2022/08/29 04:54:31;;;;;;;;;18.75;16.25;;;;;24.32;60.34;100816.28;146605;569;46018;-75
2022/08/29 04:57:30;;;;;;;;;20.25;16.25;;;;;24.47;59.25;100825.09;146604;580;47010;-79
2022/08/29 05:00:42;;;;;;;;;18.00;17.50;;;;;24.62;59.50;100817.94;146604;649;46012;-76
2022/08/29 05:03:42;;;;;;;;;17.00;14.00;;;;;24.83;58.43;100827.56;146603;605;46018;-77
2022/08/29 05:06:39;;;;;;;;;22.00;19.25;;;;;24.96;58.81;100825.72;146603;573;47010;-79
2022/08/29 05:09:37;;;;;;;;;18.25;18.00;;;;;25.13;58.48;100822.97;146603;586;46018;-80
2022/08/29 05:12:49;;;;;;;;;19.00;16.50;;;;;25.30;57.71;100821.09;146602;621;46019;-81
2022/08/29 05:15:54;;;;;;;;;18.50;16.75;;;;;25.47;57.14;100818.28;146607;593;46012;-81
2022/08/29 05:19:05;;;;;;;;;15.00;15.00;;;;;25.65;57.54;100825.22;146607;594;46018;-82
2022/08/29 05:22:01;;;;;;;;;17.50;17.00;;;;;25.90;58.65;100825.91;146605;688;48008;-77
2022/08/29 05:24:56;;;;;;;;;20.50;18.75;;;;;26.18;57.71;100829.13;146605;582;46018;-74
2022/08/29 05:28:01;;;;;;;;;18.00;16.50;;;;;26.49;56.46;100829.69;146606;567;46012;-74
2022/08/29 05:31:15;;;;;;;;;22.75;20.50;;;;;25.04;55.37;100537.38;146605;578;46012;-74
2022/08/29 05:34:11;;;;;;;;;19.75;16.75;;;;;26.94;55.34;100832.59;146604;597;46010;-74
2022/08/29 05:37:18;;;;;;;;;20.25;19.50;;;;;27.06;55.09;100831.53;146604;642;46018;-74
2022/08/29 05:40:19;;;;;;;;;21.00;19.75;;;;;27.23;54.96;100830.44;146604;596;47012;-75
2022/08/29 05:43:26;;;;;;;;;18.50;18.00;;;;;27.40;54.26;100839.91;146604;570;46010;-75
2022/08/29 05:46:30;;;;;;;;;23.00;19.25;;;;;27.52;53.92;100835.31;146607;582;46018;-78
2022/08/29 05:49:24;;;;;;;;;17.75;17.75;;;;;27.63;53.32;100838.62;146598;586;46019;-78
2022/08/29 05:52:22;;;;;;;;;20.25;16.50;;;;;27.71;52.00;100842.06;146607;597;46008;-77
2022/08/29 05:55:28;;;;;;;;;26.25;21.50;;;;;27.77;52.15;100836.66;146605;591;46018;-79
2022/08/29 05:58:27;;;;;;;;;19.25;18.00;;;;;27.82;51.81;100831.22;146607;564;46009;-75
2022/08/29 06:01:27;;;;;;;;;21.25;18.00;;;;;27.86;52.28;100830.28;146604;624;46010;-75
2022/08/29 06:04:33;;;;;;;;;22.00;18.75;;;;;27.92;53.11;100831.97;146605;634;46018;-75
2022/08/29 06:07:30;;;;;;;;;17.25;14.25;;;;;28.03;53.43;100829.97;146602;613;46018;-74
2022/08/29 06:10:24;;;;;;;;;21.75;17.25;;;;;28.28;52.67;100831.22;146606;747;46012;-76
2022/08/29 06:13:21;;;;;;;;;19.50;19.00;;;;;28.57;51.48;100829.81;146604;621;47010;-81
2022/08/29 06:16:25;;;;;;;;;18.50;18.25;;;;;28.84;51.24;100838.09;146606;581;46018;-74
2022/08/29 06:19:24;;;;;;;;;16.25;14.75;;;;;29.07;49.57;100834.97;146603;638;46019;-72
2022/08/29 06:22:21;;;;;;;;;18.50;17.50;;;;;29.24;50.31;100835.41;146606;601;46018;-75
2022/08/29 06:25:30;;;;;;;;;17.00;16.00;;;;;29.39;50.09;100835.03;146601;679;46018;-84
2022/08/29 06:28:29;;;;;;;;;19.75;16.25;;;;;29.59;49.08;100839.88;146608;582;46018;-82
2022/08/29 06:31:32;;;;;;;;;20.25;17.50;;;;;29.78;49.12;100844.78;146605;570;46018;-77
2022/08/29 06:34:31;;;;;;;;;18.00;14.75;;;;;29.98;49.14;100847.81;146606;643;46019;-75
2022/08/29 06:37:23;;;;;;;;;19.75;17.00;;;;;30.10;48.16;100846.59;146603;624;46913;-74
2022/08/29 06:40:18;;;;;;;;;19.00;17.00;;;;;30.20;48.29;100848.13;146607;569;46012;-73
2022/08/29 06:43:14;;;;;;;;;20.50;18.75;;;;;30.32;47.50;100855.81;146602;578;47012;-75
2022/08/29 06:46:15;;;;;;;;;17.50;17.25;;;;;30.36;48.12;100848.56;146607;625;46008;-73
2022/08/29 06:49:11;;;;;;;;;18.50;17.50;;;;;30.47;47.88;100845.56;146600;570;46019;-73
2022/08/29 06:52:07;;;;;;;;;15.50;13.25;;;;;30.63;47.28;100846.00;146608;640;46008;-73
2022/08/29 06:55:07;;;;;;;;;22.25;21.25;;;;;30.80;47.57;100857.97;146601;563;47010;-74
2022/08/29 06:58:05;;;;;;;;;21.25;19.50;;;;;30.94;46.49;100846.84;146611;569;46019;-70
2022/08/29 07:01:00;;;;;;;;;18.00;15.75;;;;;31.03;47.40;100862.62;146610;654;46012;-75
2022/08/29 07:04:12;;;;;;;;;21.50;18.50;;;;;29.73;47.52;100608.84;146612;609;46019;-74
2022/08/29 07:07:04;;;;;;;;;24.75;21.50;;;;;31.33;45.39;100851.84;146613;666;46010;-77
2022/08/29 07:10:06;;;;;;;;;19.75;17.75;;;;;31.46;45.69;100863.06;146614;582;46018;-77
2022/08/29 07:12:59;;;;;;;;;25.25;23.25;;;;;31.54;46.12;100852.09;146612;571;46011;-74
2022/08/29 07:15:56;;;;;;;;;23.25;21.25;;;;;30.94;45.35;100755.81;146617;573;46008;-71
2022/08/29 07:18:49;;;;;;;;;26.00;22.75;;;;;31.75;45.80;100862.97;146609;649;47011;-71
2022/08/29 07:21:48;;;;;;;;;25.75;22.25;;;;;31.87;45.27;100868.81;146614;609;47008;-71
2022/08/29 07:24:43;;;;;;;;;28.00;23.75;;;;;31.97;46.07;100872.97;146610;593;46010;-71
2022/08/29 07:27:49;;;;;;;;;;;;;;;;;;;;;
2022/08/29 07:30:51;;;;;;;;;20.75;19.50;;;;;32.11;45.23;100873.34;146611;587;46010;-71
2022/08/29 07:33:53;;;;;;;;;19.25;17.50;;;;;30.60;44.84;100601.66;146612;629;46018;-71
2022/08/29 07:36:46;;;;;;;;;20.50;18.75;;;;;32.15;44.40;100869.66;146608;673;46019;-78
2022/08/29 07:39:41;;;;;;;;;20.25;17.75;;;;;32.17;45.53;100865.09;146615;579;46008;-71
2022/08/29 07:42:46;;;;;;;;;10.00;8.75;;;;;32.27;44.99;100872.81;146610;609;46019;-72
2022/08/29 07:45:53;;;;;;;;;19.25;18.50;;;;;32.35;45.30;100874.28;146612;601;46008;-69
2022/08/29 07:48:55;;;;;;;;;19.00;16.75;;;;;32.49;45.37;100867.53;146612;599;46030;-68
2022/08/29 07:52:00;;;;;;;;;24.25;21.00;;;;;32.65;45.16;100866.06;146612;563;46018;-69
2022/08/29 07:54:55;;;;;;;;;21.50;19.25;;;;;32.79;42.62;100865.50;146609;640;46010;-68
2022/08/29 07:58:05;;;;;;;;;20.25;17.50;;;;;32.81;44.49;100863.66;146610;688;46027;-70
2022/08/29 08:01:02;;;;;;;;;24.25;21.00;;;;;32.89;43.31;100861.53;146609;583;46018;-69
2022/08/29 08:04:10;;;;;;;;;17.75;17.50;;;;;33.03;43.46;100864.56;146611;608;46019;-70
2022/08/29 08:07:07;;;;;;;;;20.25;19.25;;;;;33.24;43.70;100870.00;146612;647;47010;-70
2022/08/29 08:10:02;;;;;;;;;19.25;18.00;;;;;33.41;41.88;100867.50;146609;624;47018;-70
2022/08/29 08:12:54;;;;;;;;;19.25;18.00;;;;;33.51;42.48;100862.66;146608;570;47010;-72
2022/08/29 08:15:47;;;;;;;;;20.50;19.50;;;;;33.59;42.24;100870.41;146614;610;46018;-70
2022/08/29 08:18:41;;;;;;;;;21.25;18.75;;;;;33.67;41.99;100868.25;146611;570;46019;-70
2022/08/29 08:21:36;;;;;;;;;18.75;18.50;;;;;33.72;41.58;100858.19;146614;615;46008;-70
2022/08/29 08:24:29;;;;;;;;;21.25;19.50;;;;;33.79;42.42;100865.03;146608;605;46018;-70
2022/08/29 08:27:22;;;;;;;;;20.25;17.75;;;;;33.95;42.36;100858.03;146613;614;46012;-73
2022/08/29 08:30:16;;;;;;;;;21.25;18.00;;;;;34.03;41.80;100860.44;146609;607;46018;-71
2022/08/29 08:33:14;;;;;;;;;18.00;17.00;;;;;34.05;42.81;100858.53;146608;618;46019;-70
2022/08/29 08:36:18;;;;;;;;;20.50;19.50;;;;;34.09;41.71;100848.56;146610;623;46030;-70
2022/08/29 08:39:19;;;;;;;;;21.75;17.50;;;;;34.15;41.14;100859.91;146613;564;46024;-70
2022/08/29 08:42:44;;;;;;;;;16.25;15.25;;;;;32.86;43.05;100644.09;146612;628;46010;-70
2022/08/29 08:45:51;;;;;;;;;18.25;17.25;;;;;34.20;42.78;100860.56;146611;602;46018;-69
2022/08/29 08:49:03;;;;;;;;;17.75;15.00;;;;;34.31;42.36;100862.78;146609;591;46913;-69
2022/08/29 08:52:29;;;;;;;;;17.00;15.50;;;;;33.02;42.06;100620.19;146614;673;46018;-70
2022/08/29 08:55:53;;;;;;;;;16.00;15.50;;;;;34.61;40.91;100863.22;146610;565;46010;-70
2022/08/29 08:59:07;;;;;;;;;;;;;;;;;;;;;
2022/08/29 09:02:47;;;;;;;;;23.00;19.25;;;;;33.32;43.47;100616.13;146604;584;47010;-69
2022/08/29 09:06:21;;;;;;;;;20.75;18.75;;;;;33.51;42.41;100637.72;146603;573;46018;-70
2022/08/29 09:10:23;;;;;;;;;;;;;;;;;;;;;
2022/08/29 09:14:16;;;;;;;;;19.00;18.25;;;;;33.35;41.81;100602.56;146605;599;46018;-71
2022/08/29 09:17:44;;;;;;;;;21.00;19.00;;;;;34.85;42.17;100845.00;146602;582;46022;-71
2022/08/29 09:20:46;;;;;;;;;22.00;19.75;;;;;34.94;39.75;100844.56;146608;628;46010;-70
2022/08/29 09:24:00;;;;;;;;;22.00;19.50;;;;;34.93;41.21;100847.34;146602;676;47010;-71
2022/08/29 09:26:55;;;;;;;;;20.00;18.50;;;;;34.97;41.17;100848.94;146606;563;46019;-70
2022/08/29 09:30:11;;;;;;;;;20.75;18.75;;;;;33.59;41.65;100602.44;146601;563;46018;-70
2022/08/29 09:33:18;;;;;;;;;21.50;19.25;;;;;35.03;40.42;100847.78;146608;595;46019;-72
2022/08/29 09:36:14;;;;;;;;;22.50;19.00;;;;;35.01;41.44;100844.25;146603;628;47010;-70
2022/08/29 09:39:48;;;;;;;;;;;;;;;;;;;;;
2022/08/29 09:43:02;;;;;;;;;;;;;;;;;;;;;
2022/08/29 09:46:22;;;;;;;;;20.50;19.25;;;;;35.10;41.55;100838.47;146604;601;46032;-71
2022/08/29 09:49:22;;;;;;;;;22.50;20.50;;;;;33.97;41.41;100634.72;146604;644;46019;-71
2022/08/29 09:52:32;;;;;;;;;20.50;19.25;;;;;35.25;42.37;100829.63;146608;604;46008;-70
2022/08/29 09:55:49;;;;;;;;;19.75;19.00;;;;;35.33;40.79;100831.94;146603;598;46019;-69
2022/08/29 09:59:08;;;;;;;;;19.00;16.50;;;;;35.32;39.42;100832.88;146612;577;46018;-70
2022/08/29 10:02:22;;;;;;;;;12.00;9.75;;;;;35.30;41.98;100830.28;146612;573;46010;-71
2022/08/29 10:05:46;;;;;;;;;18.50;18.00;;;;;35.42;42.23;100823.34;146610;605;46020;-70
2022/08/29 10:08:50;;;;;;;;;22.25;19.50;;;;;35.49;38.53;100826.66;146610;596;47013;-71
2022/08/29 10:11:59;;;;;;;;;17.50;17.50;;;;;35.51;41.45;100822.88;146616;652;46008;-71
2022/08/29 10:15:07;;;;;;;;;16.75;16.25;;;;;35.60;39.64;100827.84;146610;563;46018;-71
2022/08/29 10:18:28;;;;;;;;;15.50;14.50;;;;;35.67;38.51;100820.31;146614;567;46008;-70
2022/08/29 10:22:04;;;;;;;;;17.25;16.25;;;;;35.72;40.03;100815.56;146611;577;46018;-72
2022/08/29 10:25:38;;;;;;;;;15.75;14.50;;;;;34.14;38.92;100561.28;146615;581;46008;-71
2022/08/29 10:29:21;;;;;;;;;16.50;14.50;;;;;34.09;39.91;100556.13;146612;571;46010;-71
2022/08/29 10:32:45;;;;;;;;;18.25;15.00;;;;;34.13;40.15;100549.66;146614;615;47008;-70
2022/08/29 10:36:25;;;;;;;;;19.50;17.75;;;;;34.03;36.84;100567.19;146609;608;46018;-70
2022/08/29 10:39:37;;;;;;;;;17.50;17.50;;;;;35.04;37.66;100806.44;146612;615;46019;-72
2022/08/29 10:42:39;;;;;;;;;16.50;15.00;;;;;34.66;37.99;100810.00;146608;579;46018;-73
2022/08/29 10:46:00;;;;;;;;;16.75;14.75;;;;;32.85;37.47;100551.06;146615;617;46008;-70
2022/08/29 10:49:31;;;;;;;;;17.25;14.25;;;;;34.16;40.71;100807.81;146607;615;46019;-72
2022/08/29 10:52:41;;;;;;;;;16.75;16.00;;;;;34.10;36.54;100802.72;146612;570;47010;-75
2022/08/29 10:56:08;;;;;;;;;18.25;14.00;;;;;32.51;39.04;100533.72;146606;564;46012;-72
2022/08/29 10:59:44;;;;;;;;;14.00;14.00;;;;;34.17;36.78;100796.09;146613;569;46018;-71
2022/08/29 11:03:32;;;;;;;;;12.75;12.00;;;;;32.88;36.94;100540.19;146608;600;46018;-71
2022/08/29 11:06:40;;;;;;;;;15.25;13.25;;;;;34.29;37.52;100791.97;146614;572;46008;-72
2022/08/29 11:09:46;;;;;;;;;17.25;14.50;;;;;34.35;34.75;100789.00;146609;698;46019;-70
2022/08/29 11:13:11;;;;;;;;;16.00;14.50;;;;;34.43;37.39;100789.53;146616;682;46008;-71
2022/08/29 11:16:50;;;;;;;;;15.50;12.00;;;;;34.40;35.51;100780.72;146610;570;46911;-71
2022/08/29 11:20:10;;;;;;;;;14.75;13.00;;;;;34.11;34.21;100741.69;146613;652;46018;-71
2022/08/29 11:23:21;;;;;;;;;15.00;13.00;;;;;34.30;37.17;100774.91;146611;591;46912;-71
2022/08/29 11:27:06;;;;;;;;;14.75;14.00;;;;;33.60;35.60;100670.50;146613;564;46019;-70
2022/08/29 11:30:41;;;;;;;;;14.50;12.25;;;;;34.32;35.71;100773.00;146611;632;46920;-70
2022/08/29 11:34:17;;;;;;;;;14.50;13.00;;;;;34.24;34.48;100764.44;146612;682;46008;-74
2022/08/29 11:37:55;;;;;;;;;13.00;11.75;;;;;34.18;34.17;100757.50;146609;618;46913;-69
2022/08/29 11:41:27;;;;;;;;;13.00;13.00;;;;;34.06;35.48;100757.19;146615;638;46018;-69
2022/08/29 11:44:56;;;;;;;;;15.50;13.00;;;;;32.45;37.46;100488.37;146611;665;46012;-68
2022/08/29 11:48:30;;;;;;;;;15.25;13.75;;;;;32.42;35.60;100477.75;146614;599;46008;-68
2022/08/29 11:51:43;;;;;;;;;18.00;17.00;;;;;34.12;37.34;100738.97;146608;595;46018;-67
2022/08/29 11:55:15;;;;;;;;;15.50;13.75;;;;;32.38;37.89;100414.41;146612;637;46019;-67
2022/08/29 11:58:50;;;;;;;;;14.25;14.00;;;;;33.27;38.68;100528.59;146603;581;47010;-67
2022/08/29 12:02:10;;;;;;;;;14.25;13.75;;;;;34.59;35.49;100721.53;146607;575;46018;-67
2022/08/29 12:05:52;;;;;;;;;19.75;17.50;;;;;33.11;38.57;100472.88;146603;579;46018;-69
2022/08/29 12:09:22;;;;;;;;;17.50;14.25;;;;;34.67;36.83;100720.19;146606;641;46019;-69
2022/08/29 12:12:22;;;;;;;;;14.75;13.50;;;;;34.67;35.56;100713.91;146602;586;47010;-69
2022/08/29 12:15:54;;;;;;;;;15.75;13.25;;;;;34.65;36.16;100716.69;146605;622;46027;-69
2022/08/29 12:18:59;;;;;;;;;15.25;13.75;;;;;34.60;35.19;100710.66;146604;572;46018;-69
2022/08/29 12:21:58;;;;;;;;;14.50;13.25;;;;;34.58;35.38;100717.97;146607;575;46008;-68
2022/08/29 12:24:51;;;;;;;;;15.75;14.00;;;;;34.66;35.82;100710.34;146602;583;46010;-68
2022/08/29 12:28:10;;;;;;;;;14.75;13.00;;;;;34.77;36.54;100709.84;146605;579;46018;-70
2022/08/29 12:31:26;;;;;;;;;13.00;12.50;;;;;34.90;35.89;100708.28;146599;570;48018;-69
2022/08/29 12:35:22;;;;;;;;;16.50;12.75;;;;;33.48;36.34;100438.03;146605;636;46018;-68
2022/08/29 12:38:43;;;;;;;;;12.50;11.50;;;;;33.51;31.43;100451.38;146603;614;46019;-70
2022/08/29 12:42:22;;;;;;;;;17.50;15.25;;;;;34.82;36.13;100697.00;146608;565;46008;-68
2022/08/29 12:45:34;;;;;;;;;17.50;15.25;;;;;33.35;35.34;100454.75;146605;586;46010;-69
2022/08/29 12:48:43;;;;;;;;;;;;;;;;;;;;;
2022/08/29 12:52:03;;;;;;;;;13.75;12.50;;;;;34.60;34.92;100672.97;146603;572;46913;-68
2022/08/29 12:55:22;;;;;;;;;18.75;14.50;;;;;34.65;36.34;100675.44;146607;607;46018;-71
2022/08/29 12:58:35;;;;;;;;;14.25;13.75;;;;;34.64;33.66;100674.56;146609;604;46018;-71
2022/08/29 13:01:56;;;;;;;;;13.75;13.75;;;;;32.85;35.83;100376.53;146615;636;46027;-71
2022/08/29 13:04:50;;;;;;;;;13.50;13.50;;;;;34.51;34.56;100657.22;146609;592;46018;-71
2022/08/29 13:07:58;;;;;;;;;15.50;13.75;;;;;34.41;35.94;100659.50;146613;653;46008;-74
2022/08/29 13:11:06;;;;;;;;;20.00;16.25;;;;;34.35;35.82;100658.94;146608;572;46916;-71
2022/08/29 13:14:26;;;;;;;;;;;;;;;;;;;;;
2022/08/29 13:17:45;;;;;;;;;13.25;13.25;;;;;34.39;37.12;100652.44;146609;570;46019;-77
2022/08/29 13:21:24;;;;;;;;;16.75;15.50;;;;;33.09;37.74;100425.56;146614;624;46025;-73
2022/08/29 13:24:30;;;;;;;;;15.75;15.75;;;;;34.39;36.99;100645.22;146610;686;46018;-74
2022/08/29 13:27:46;;;;;;;;;;;;;;;;;;;;;
2022/08/29 13:31:06;;;;;;;;;17.00;16.50;;;;;34.35;37.05;100627.50;146608;604;46019;-74
2022/08/29 13:34:27;;;;;;;;;16.00;14.75;;;;;34.32;38.93;100627.66;146612;576;46018;-71
2022/08/29 13:37:46;;;;;;;;;15.50;15.50;;;;;34.23;38.79;100622.72;146612;604;46010;-72
2022/08/29 13:41:00;;;;;;;;;18.75;17.25;;;;;34.23;39.04;100615.50;146612;575;46018;-71
2022/08/29 13:43:52;;;;;;;;;15.25;14.00;;;;;34.29;37.21;100608.97;146613;593;46010;-74
2022/08/29 13:46:52;;;;;;;;;12.75;12.75;;;;;34.20;37.52;100617.47;146615;591;46018;-73
2022/08/29 13:50:02;;;;;;;;;;;;;;;;;;;;;
2022/08/29 13:53:12;;;;;;;;;14.25;13.75;;;;;34.05;39.19;100610.16;146612;590;46915;-73
2022/08/29 13:56:29;;;;;;;;;14.25;14.25;;;;;33.98;36.86;100605.03;146609;571;46018;-73
2022/08/29 13:59:26;;;;;;;;;16.75;14.50;;;;;33.88;37.83;100602.87;146616;628;46008;-74
2022/08/29 14:02:22;;;;;;;;;15.75;14.25;;;;;33.88;37.58;100597.50;146612;579;46012;-72
2022/08/29 14:05:28;;;;;;;;;15.25;14.75;;;;;33.88;37.15;100598.34;146613;584;47008;-73
2022/08/29 14:08:29;;;;;;;;;16.75;16.75;;;;;33.84;37.54;100593.22;146606;620;46018;-72
2022/08/29 14:11:28;;;;;;;;;15.00;14.75;;;;;33.79;37.43;100596.09;146612;616;46018;-71
2022/08/29 14:14:24;;;;;;;;;13.50;12.75;;;;;33.71;36.65;100603.66;146611;651;46019;-74
2022/08/29 14:17:20;;;;;;;;;16.00;14.75;;;;;33.70;37.44;100601.91;146613;669;46008;-71
2022/08/29 14:20:20;;;;;;;;;13.50;13.25;;;;;33.74;38.31;100590.97;146608;684;46018;-71
2022/08/29 14:23:26;;;;;;;;;;;;;;;;;;;;;
2022/08/29 14:26:24;;;;;;;;;16.00;14.75;;;;;33.79;38.24;100596.09;146613;571;46010;-71
2022/08/29 14:29:26;;;;;;;;;11.50;11.00;;;;;33.79;38.71;100593.41;146609;564;47018;-74
2022/08/29 14:32:21;;;;;;;;;15.00;12.75;;;;;33.72;37.72;100589.28;146608;619;46913;-72
2022/08/29 14:35:15;;;;;;;;;15.75;15.00;;;;;33.66;36.63;100597.63;146613;573;46012;-72
2022/08/29 14:38:10;;;;;;;;;12.75;12.75;;;;;33.59;39.79;100596.19;146611;578;46019;-71